sensor_id;sensor_type;location;lat;lon;timestamp;P1;durP1;ratioP1;P2;durP2;ratioP2
15110;SDS011;7656;51.954;7.998;2023-02-22T00:02:22;38.33;;;16.93;;
15110;SDS011;7656;51.954;7.998;2023-02-22T00:06:48;40.40;;;17.00;;
15110;SDS011;7656;51.954;7.998;2023-02-22T00:11:09;38.53;;;17.77;;
15110;SDS011;7656;51.954;7.998;2023-02-22T00:15:30;37.70;;;16.33;;
15110;SDS011;7656;51.954;7.998;2023-02-22T00:19:53;36.83;;;16.83;;
15110;SDS011;7656;51.954;7.998;2023-02-22T00:24:14;32.40;;;14.50;;
15110;SDS011;7656;51.954;7.998;2023-02-22T00:28:43;39.43;;;16.30;;
15110;SDS011;7656;51.954;7.998;2023-02-22T00:33:10;35.33;;;16.33;;
15110;SDS011;7656;51.954;7.998;2023-02-22T00:37:33;34.97;;;15.57;;
15110;SDS011;7656;51.954;7.998;2023-02-22T00:41:55;31.67;;;15.27;;
15110;SDS011;7656;51.954;7.998;2023-02-22T00:46:16;31.23;;;14.10;;
15110;SDS011;7656;51.954;7.998;2023-02-22T00:50:38;33.60;;;15.90;;
15110;SDS011;7656;51.954;7.998;2023-02-22T00:54:59;29.83;;;14.80;;
15110;SDS011;7656;51.954;7.998;2023-02-22T00:59:20;33.23;;;14.47;;
15110;SDS011;7656;51.954;7.998;2023-02-22T01:03:41;36.50;;;16.63;;
15110;SDS011;7656;51.954;7.998;2023-02-22T01:08:04;31.90;;;15.17;;
15110;SDS011;7656;51.954;7.998;2023-02-22T01:12:28;31.43;;;14.27;;
15110;SDS011;7656;51.954;7.998;2023-02-22T01:16:49;31.93;;;13.60;;
15110;SDS011;7656;51.954;7.998;2023-02-22T01:21:10;28.17;;;14.53;;
15110;SDS011;7656;51.954;7.998;2023-02-22T01:25:32;28.93;;;14.03;;
15110;SDS011;7656;51.954;7.998;2023-02-22T01:29:54;33.77;;;14.23;;
15110;SDS011;7656;51.954;7.998;2023-02-22T01:34:15;32.43;;;13.27;;
15110;SDS011;7656;51.954;7.998;2023-02-22T01:38:38;27.67;;;14.27;;
15110;SDS011;7656;51.954;7.998;2023-02-22T01:43:00;27.30;;;12.97;;
15110;SDS011;7656;51.954;7.998;2023-02-22T01:47:40;29.17;;;13.57;;
15110;SDS011;7656;51.954;7.998;2023-02-22T01:52:02;31.07;;;12.93;;
15110;SDS011;7656;51.954;7.998;2023-02-22T01:56:28;26.07;;;11.70;;
15110;SDS011;7656;51.954;7.998;2023-02-22T02:00:52;107.27;;;16.23;;
15110;SDS011;7656;51.954;7.998;2023-02-22T02:05:13;23.33;;;7.97;;
15110;SDS011;7656;51.954;7.998;2023-02-22T02:09:36;14.67;;;6.60;;
15110;SDS011;7656;51.954;7.998;2023-02-22T02:14:04;33.57;;;9.87;;
15110;SDS011;7656;51.954;7.998;2023-02-22T02:18:27;28.47;;;9.83;;
15110;SDS011;7656;51.954;7.998;2023-02-22T02:22:55;35.47;;;11.97;;
15110;SDS011;7656;51.954;7.998;2023-02-22T02:37:56;30.77;;;11.30;;
15110;SDS011;7656;51.954;7.998;2023-02-22T02:42:32;38.10;;;11.63;;
15110;SDS011;7656;51.954;7.998;2023-02-22T02:51:32;51.27;;;13.20;;
15110;SDS011;7656;51.954;7.998;2023-02-22T02:55:58;29.90;;;12.07;;
15110;SDS011;7656;51.954;7.998;2023-02-22T03:00:22;56.67;;;13.70;;
15110;SDS011;7656;51.954;7.998;2023-02-22T03:10:02;34.13;;;12.30;;
15110;SDS011;7656;51.954;7.998;2023-02-22T03:14:51;27.47;;;11.40;;
15110;SDS011;7656;51.954;7.998;2023-02-22T03:20:00;37.07;;;12.13;;
15110;SDS011;7656;51.954;7.998;2023-02-22T03:29:17;80.27;;;15.20;;
15110;SDS011;7656;51.954;7.998;2023-02-22T03:33:41;78.97;;;13.57;;
15110;SDS011;7656;51.954;7.998;2023-02-22T03:38:10;39.23;;;11.33;;
15110;SDS011;7656;51.954;7.998;2023-02-22T03:42:48;168.07;;;19.17;;
15110;SDS011;7656;51.954;7.998;2023-02-22T03:47:20;80.93;;;13.67;;
15110;SDS011;7656;51.954;7.998;2023-02-22T03:51:48;62.17;;;13.63;;
15110;SDS011;7656;51.954;7.998;2023-02-22T03:56:10;73.77;;;14.00;;
15110;SDS011;7656;51.954;7.998;2023-02-22T04:00:36;72.43;;;13.53;;
15110;SDS011;7656;51.954;7.998;2023-02-22T04:04:57;69.93;;;12.17;;
15110;SDS011;7656;51.954;7.998;2023-02-22T04:09:19;31.67;;;11.10;;
15110;SDS011;7656;51.954;7.998;2023-02-22T04:13:40;44.20;;;12.30;;
15110;SDS011;7656;51.954;7.998;2023-02-22T04:18:01;76.67;;;14.83;;
15110;SDS011;7656;51.954;7.998;2023-02-22T04:22:24;51.83;;;11.23;;
15110;SDS011;7656;51.954;7.998;2023-02-22T04:26:46;33.80;;;11.40;;
15110;SDS011;7656;51.954;7.998;2023-02-22T04:31:08;36.00;;;11.87;;
15110;SDS011;7656;51.954;7.998;2023-02-22T04:35:29;39.00;;;12.13;;
15110;SDS011;7656;51.954;7.998;2023-02-22T04:39:50;27.10;;;10.13;;
15110;SDS011;7656;51.954;7.998;2023-02-22T04:44:12;33.40;;;11.57;;
15110;SDS011;7656;51.954;7.998;2023-02-22T04:48:34;54.87;;;13.40;;
15110;SDS011;7656;51.954;7.998;2023-02-22T04:52:55;29.47;;;11.43;;
15110;SDS011;7656;51.954;7.998;2023-02-22T04:57:17;118.20;;;15.70;;
15110;SDS011;7656;51.954;7.998;2023-02-22T05:01:38;50.57;;;11.97;;
15110;SDS011;7656;51.954;7.998;2023-02-22T05:05:59;57.73;;;11.43;;
15110;SDS011;7656;51.954;7.998;2023-02-22T05:10:20;41.87;;;10.93;;
15110;SDS011;7656;51.954;7.998;2023-02-22T05:14:42;46.20;;;11.80;;
15110;SDS011;7656;51.954;7.998;2023-02-22T05:19:03;33.60;;;9.73;;
15110;SDS011;7656;51.954;7.998;2023-02-22T05:23:25;30.67;;;10.67;;
15110;SDS011;7656;51.954;7.998;2023-02-22T05:27:53;42.70;;;10.83;;
15110;SDS011;7656;51.954;7.998;2023-02-22T05:32:17;33.17;;;9.17;;
15110;SDS011;7656;51.954;7.998;2023-02-22T05:36:38;19.07;;;8.63;;
15110;SDS011;7656;51.954;7.998;2023-02-22T05:40:59;25.23;;;8.10;;
15110;SDS011;7656;51.954;7.998;2023-02-22T05:45:22;28.50;;;8.77;;
15110;SDS011;7656;51.954;7.998;2023-02-22T05:49:45;74.23;;;12.60;;
15110;SDS011;7656;51.954;7.998;2023-02-22T05:54:06;24.17;;;8.40;;
15110;SDS011;7656;51.954;7.998;2023-02-22T05:58:28;54.03;;;11.47;;
15110;SDS011;7656;51.954;7.998;2023-02-22T06:02:53;52.13;;;11.27;;
15110;SDS011;7656;51.954;7.998;2023-02-22T06:07:25;31.13;;;9.07;;
15110;SDS011;7656;51.954;7.998;2023-02-22T06:11:46;38.27;;;9.33;;
15110;SDS011;7656;51.954;7.998;2023-02-22T06:16:07;40.30;;;8.37;;
15110;SDS011;7656;51.954;7.998;2023-02-22T06:20:28;22.53;;;7.67;;
15110;SDS011;7656;51.954;7.998;2023-02-22T06:24:50;17.37;;;8.23;;
15110;SDS011;7656;51.954;7.998;2023-02-22T06:29:11;46.57;;;9.67;;
15110;SDS011;7656;51.954;7.998;2023-02-22T06:33:33;24.20;;;7.23;;
15110;SDS011;7656;51.954;7.998;2023-02-22T06:37:54;33.40;;;8.43;;
15110;SDS011;7656;51.954;7.998;2023-02-22T06:42:15;43.23;;;9.57;;
15110;SDS011;7656;51.954;7.998;2023-02-22T06:46:36;34.00;;;6.90;;
15110;SDS011;7656;51.954;7.998;2023-02-22T06:50:57;34.47;;;7.17;;
15110;SDS011;7656;51.954;7.998;2023-02-22T06:55:26;25.97;;;6.27;;
15110;SDS011;7656;51.954;7.998;2023-02-22T06:59:49;24.70;;;6.73;;
15110;SDS011;7656;51.954;7.998;2023-02-22T07:04:10;20.73;;;6.40;;
15110;SDS011;7656;51.954;7.998;2023-02-22T07:08:31;21.40;;;8.03;;
15110;SDS011;7656;51.954;7.998;2023-02-22T07:12:52;23.13;;;8.60;;
15110;SDS011;7656;51.954;7.998;2023-02-22T07:17:14;19.73;;;7.40;;
15110;SDS011;7656;51.954;7.998;2023-02-22T07:21:35;24.77;;;8.37;;
15110;SDS011;7656;51.954;7.998;2023-02-22T07:25:58;25.47;;;7.90;;
15110;SDS011;7656;51.954;7.998;2023-02-22T07:34:45;15.37;;;6.33;;
15110;SDS011;7656;51.954;7.998;2023-02-22T07:39:06;16.10;;;6.67;;
15110;SDS011;7656;51.954;7.998;2023-02-22T07:43:28;18.53;;;5.37;;
15110;SDS011;7656;51.954;7.998;2023-02-22T07:47:52;36.23;;;7.60;;
15110;SDS011;7656;51.954;7.998;2023-02-22T07:52:14;17.90;;;6.67;;
15110;SDS011;7656;51.954;7.998;2023-02-22T07:56:42;11.87;;;6.07;;
15110;SDS011;7656;51.954;7.998;2023-02-22T08:01:05;34.93;;;8.30;;
15110;SDS011;7656;51.954;7.998;2023-02-22T08:05:26;16.67;;;6.20;;
15110;SDS011;7656;51.954;7.998;2023-02-22T08:09:48;14.77;;;5.83;;
15110;SDS011;7656;51.954;7.998;2023-02-22T08:14:09;22.87;;;6.80;;
15110;SDS011;7656;51.954;7.998;2023-02-22T08:18:30;17.50;;;8.70;;
15110;SDS011;7656;51.954;7.998;2023-02-22T08:22:52;36.50;;;10.17;;
15110;SDS011;7656;51.954;7.998;2023-02-22T08:27:13;17.17;;;8.73;;
15110;SDS011;7656;51.954;7.998;2023-02-22T08:31:34;20.37;;;9.37;;
15110;SDS011;7656;51.954;7.998;2023-02-22T08:35:55;32.07;;;11.53;;
15110;SDS011;7656;51.954;7.998;2023-02-22T08:40:18;17.83;;;9.30;;
15110;SDS011;7656;51.954;7.998;2023-02-22T08:44:42;26.63;;;13.60;;
15110;SDS011;7656;51.954;7.998;2023-02-22T08:49:03;23.33;;;10.80;;
15110;SDS011;7656;51.954;7.998;2023-02-22T08:53:26;23.63;;;11.27;;
15110;SDS011;7656;51.954;7.998;2023-02-22T08:57:48;15.80;;;9.93;;
15110;SDS011;7656;51.954;7.998;2023-02-22T09:02:13;16.13;;;9.33;;
15110;SDS011;7656;51.954;7.998;2023-02-22T09:06:39;17.40;;;9.80;;
15110;SDS011;7656;51.954;7.998;2023-02-22T09:11:01;15.23;;;8.93;;
15110;SDS011;7656;51.954;7.998;2023-02-22T09:15:23;16.53;;;10.00;;
15110;SDS011;7656;51.954;7.998;2023-02-22T09:19:45;15.17;;;10.00;;
15110;SDS011;7656;51.954;7.998;2023-02-22T09:24:06;15.80;;;9.47;;
15110;SDS011;7656;51.954;7.998;2023-02-22T09:28:28;15.23;;;9.83;;
15110;SDS011;7656;51.954;7.998;2023-02-22T09:32:50;13.73;;;9.70;;
15110;SDS011;7656;51.954;7.998;2023-02-22T09:37:18;12.40;;;8.77;;
15110;SDS011;7656;51.954;7.998;2023-02-22T09:41:49;13.40;;;8.67;;
15110;SDS011;7656;51.954;7.998;2023-02-22T09:46:41;12.83;;;8.60;;
15110;SDS011;7656;51.954;7.998;2023-02-22T09:51:07;13.73;;;8.77;;
15110;SDS011;7656;51.954;7.998;2023-02-22T09:55:38;15.17;;;9.10;;
15110;SDS011;7656;51.954;7.998;2023-02-22T10:00:21;13.47;;;9.27;;
15110;SDS011;7656;51.954;7.998;2023-02-22T10:04:54;15.40;;;8.37;;
15110;SDS011;7656;51.954;7.998;2023-02-22T10:09:26;13.60;;;9.17;;
15110;SDS011;7656;51.954;7.998;2023-02-22T10:23:24;13.47;;;9.30;;
15110;SDS011;7656;51.954;7.998;2023-02-22T10:32:44;13.23;;;8.43;;
15110;SDS011;7656;51.954;7.998;2023-02-22T10:37:15;12.87;;;8.63;;
15110;SDS011;7656;51.954;7.998;2023-02-22T10:41:52;14.33;;;8.53;;
15110;SDS011;7656;51.954;7.998;2023-02-22T10:46:17;15.63;;;10.13;;
15110;SDS011;7656;51.954;7.998;2023-02-22T10:50:42;16.00;;;9.20;;
15110;SDS011;7656;51.954;7.998;2023-02-22T10:55:05;13.20;;;9.07;;
15110;SDS011;7656;51.954;7.998;2023-02-22T10:59:34;12.83;;;8.60;;
15110;SDS011;7656;51.954;7.998;2023-02-22T11:08:38;13.37;;;8.67;;
15110;SDS011;7656;51.954;7.998;2023-02-22T11:13:00;15.17;;;9.40;;
15110;SDS011;7656;51.954;7.998;2023-02-22T11:17:45;10.90;;;9.17;;
15110;SDS011;7656;51.954;7.998;2023-02-22T11:22:11;13.77;;;8.90;;
15110;SDS011;7656;51.954;7.998;2023-02-22T11:26:41;12.57;;;8.40;;
15110;SDS011;7656;51.954;7.998;2023-02-22T11:31:14;13.30;;;8.47;;
15110;SDS011;7656;51.954;7.998;2023-02-22T11:35:49;11.27;;;7.80;;
15110;SDS011;7656;51.954;7.998;2023-02-22T11:40:24;16.23;;;8.60;;
15110;SDS011;7656;51.954;7.998;2023-02-22T11:44:46;11.77;;;8.23;;
15110;SDS011;7656;51.954;7.998;2023-02-22T11:49:08;12.13;;;8.77;;
15110;SDS011;7656;51.954;7.998;2023-02-22T11:57:56;12.00;;;7.67;;
15110;SDS011;7656;51.954;7.998;2023-02-22T12:12:08;9.80;;;6.73;;
15110;SDS011;7656;51.954;7.998;2023-02-22T12:21:46;9.20;;;6.70;;
15110;SDS011;7656;51.954;7.998;2023-02-22T12:26:17;11.20;;;7.53;;
15110;SDS011;7656;51.954;7.998;2023-02-22T12:30:45;12.77;;;7.30;;
15110;SDS011;7656;51.954;7.998;2023-02-22T12:35:38;10.70;;;6.83;;
15110;SDS011;7656;51.954;7.998;2023-02-22T12:40:13;9.80;;;6.50;;
15110;SDS011;7656;51.954;7.998;2023-02-22T12:45:00;8.33;;;6.53;;
15110;SDS011;7656;51.954;7.998;2023-02-22T12:49:47;9.57;;;6.20;;
15110;SDS011;7656;51.954;7.998;2023-02-22T12:59:05;8.17;;;5.90;;
15110;SDS011;7656;51.954;7.998;2023-02-22T13:03:39;8.40;;;5.60;;
15110;SDS011;7656;51.954;7.998;2023-02-22T13:17:27;8.70;;;5.30;;
15110;SDS011;7656;51.954;7.998;2023-02-22T13:22:06;8.03;;;5.40;;
15110;SDS011;7656;51.954;7.998;2023-02-22T13:26:51;7.17;;;5.40;;
15110;SDS011;7656;51.954;7.998;2023-02-22T13:41:50;6.73;;;4.60;;
15110;SDS011;7656;51.954;7.998;2023-02-22T13:55:17;7.80;;;5.17;;
15110;SDS011;7656;51.954;7.998;2023-02-22T13:59:42;9.03;;;4.60;;
15110;SDS011;7656;51.954;7.998;2023-02-22T14:08:46;7.20;;;4.93;;
15110;SDS011;7656;51.954;7.998;2023-02-22T14:13:07;6.13;;;4.10;;
15110;SDS011;7656;51.954;7.998;2023-02-22T14:17:29;7.50;;;3.80;;
15110;SDS011;7656;51.954;7.998;2023-02-22T14:22:03;5.23;;;4.00;;
15110;SDS011;7656;51.954;7.998;2023-02-22T14:26:30;4.57;;;3.23;;
15110;SDS011;7656;51.954;7.998;2023-02-22T14:31:07;5.43;;;3.50;;
15110;SDS011;7656;51.954;7.998;2023-02-22T14:35:36;4.80;;;3.60;;
15110;SDS011;7656;51.954;7.998;2023-02-22T14:44:47;4.57;;;3.10;;
15110;SDS011;7656;51.954;7.998;2023-02-22T14:49:45;5.67;;;3.40;;
15110;SDS011;7656;51.954;7.998;2023-02-22T14:59:25;5.80;;;3.17;;
15110;SDS011;7656;51.954;7.998;2023-02-22T15:03:47;5.57;;;3.47;;
15110;SDS011;7656;51.954;7.998;2023-02-22T15:08:09;5.67;;;3.40;;
15110;SDS011;7656;51.954;7.998;2023-02-22T15:12:34;5.70;;;3.30;;
15110;SDS011;7656;51.954;7.998;2023-02-22T15:16:56;5.67;;;3.60;;
15110;SDS011;7656;51.954;7.998;2023-02-22T15:21:22;5.10;;;3.27;;
15110;SDS011;7656;51.954;7.998;2023-02-22T15:25:47;4.30;;;2.77;;
15110;SDS011;7656;51.954;7.998;2023-02-22T15:34:42;4.30;;;3.20;;
15110;SDS011;7656;51.954;7.998;2023-02-22T15:39:03;3.73;;;2.60;;
15110;SDS011;7656;51.954;7.998;2023-02-22T15:43:28;5.77;;;3.03;;
15110;SDS011;7656;51.954;7.998;2023-02-22T15:47:51;4.33;;;2.80;;
15110;SDS011;7656;51.954;7.998;2023-02-22T15:52:19;9.10;;;3.50;;
15110;SDS011;7656;51.954;7.998;2023-02-22T15:56:48;5.73;;;3.40;;
15110;SDS011;7656;51.954;7.998;2023-02-22T16:01:16;3.47;;;2.90;;
15110;SDS011;7656;51.954;7.998;2023-02-22T16:05:39;4.30;;;2.80;;
15110;SDS011;7656;51.954;7.998;2023-02-22T16:10:06;4.27;;;2.50;;
15110;SDS011;7656;51.954;7.998;2023-02-22T16:14:49;5.97;;;2.77;;
15110;SDS011;7656;51.954;7.998;2023-02-22T16:19:23;4.23;;;2.73;;
15110;SDS011;7656;51.954;7.998;2023-02-22T16:23:53;11.07;;;3.67;;
15110;SDS011;7656;51.954;7.998;2023-02-22T16:28:23;5.57;;;2.83;;
15110;SDS011;7656;51.954;7.998;2023-02-22T16:32:50;5.10;;;3.20;;
15110;SDS011;7656;51.954;7.998;2023-02-22T16:37:20;7.97;;;3.33;;
15110;SDS011;7656;51.954;7.998;2023-02-22T16:41:42;4.53;;;2.67;;
15110;SDS011;7656;51.954;7.998;2023-02-22T16:46:04;10.57;;;3.77;;
15110;SDS011;7656;51.954;7.998;2023-02-22T16:50:26;4.53;;;2.40;;
15110;SDS011;7656;51.954;7.998;2023-02-22T16:54:47;6.13;;;2.50;;
15110;SDS011;7656;51.954;7.998;2023-02-22T16:59:11;5.20;;;2.70;;
15110;SDS011;7656;51.954;7.998;2023-02-22T17:03:34;2.93;;;2.50;;
15110;SDS011;7656;51.954;7.998;2023-02-22T17:07:55;5.70;;;3.30;;
15110;SDS011;7656;51.954;7.998;2023-02-22T17:12:16;9.07;;;4.07;;
15110;SDS011;7656;51.954;7.998;2023-02-22T17:16:38;10.30;;;3.87;;
15110;SDS011;7656;51.954;7.998;2023-02-22T17:20:59;14.20;;;5.73;;
15110;SDS011;7656;51.954;7.998;2023-02-22T17:25:22;10.53;;;3.30;;
15110;SDS011;7656;51.954;7.998;2023-02-22T17:29:48;13.47;;;7.87;;
15110;SDS011;7656;51.954;7.998;2023-02-22T17:34:09;15.47;;;7.47;;
15110;SDS011;7656;51.954;7.998;2023-02-22T17:38:30;3.97;;;3.60;;
15110;SDS011;7656;51.954;7.998;2023-02-22T17:42:51;5.27;;;3.43;;
15110;SDS011;7656;51.954;7.998;2023-02-22T17:47:14;4.37;;;2.87;;
15110;SDS011;7656;51.954;7.998;2023-02-22T17:51:37;5.27;;;3.40;;
15110;SDS011;7656;51.954;7.998;2023-02-22T17:56:03;4.47;;;2.67;;
15110;SDS011;7656;51.954;7.998;2023-02-22T18:00:32;4.90;;;3.07;;
15110;SDS011;7656;51.954;7.998;2023-02-22T18:04:56;5.10;;;2.93;;
15110;SDS011;7656;51.954;7.998;2023-02-22T18:09:17;5.10;;;3.43;;
15110;SDS011;7656;51.954;7.998;2023-02-22T18:13:39;5.40;;;3.30;;
15110;SDS011;7656;51.954;7.998;2023-02-22T18:18:02;3.67;;;3.00;;
15110;SDS011;7656;51.954;7.998;2023-02-22T18:22:24;7.17;;;4.73;;
15110;SDS011;7656;51.954;7.998;2023-02-22T18:26:45;19.23;;;10.20;;
15110;SDS011;7656;51.954;7.998;2023-02-22T18:31:07;9.63;;;6.20;;
15110;SDS011;7656;51.954;7.998;2023-02-22T18:35:30;14.90;;;6.70;;
15110;SDS011;7656;51.954;7.998;2023-02-22T18:39:51;6.00;;;3.37;;
15110;SDS011;7656;51.954;7.998;2023-02-22T18:44:14;7.60;;;3.90;;
15110;SDS011;7656;51.954;7.998;2023-02-22T18:48:36;7.23;;;4.57;;
15110;SDS011;7656;51.954;7.998;2023-02-22T18:52:58;5.47;;;3.67;;
15110;SDS011;7656;51.954;7.998;2023-02-22T18:57:19;4.87;;;3.20;;
15110;SDS011;7656;51.954;7.998;2023-02-22T19:01:41;7.10;;;3.30;;
15110;SDS011;7656;51.954;7.998;2023-02-22T19:06:08;10.87;;;5.87;;
15110;SDS011;7656;51.954;7.998;2023-02-22T19:10:29;8.27;;;5.23;;
15110;SDS011;7656;51.954;7.998;2023-02-22T19:14:51;19.70;;;8.13;;
15110;SDS011;7656;51.954;7.998;2023-02-22T19:19:12;12.07;;;7.23;;
15110;SDS011;7656;51.954;7.998;2023-02-22T19:23:36;13.77;;;8.10;;
15110;SDS011;7656;51.954;7.998;2023-02-22T19:28:04;13.37;;;7.50;;
15110;SDS011;7656;51.954;7.998;2023-02-22T19:32:25;12.23;;;7.37;;
15110;SDS011;7656;51.954;7.998;2023-02-22T19:36:46;15.83;;;7.83;;
15110;SDS011;7656;51.954;7.998;2023-02-22T19:41:08;16.10;;;9.00;;
15110;SDS011;7656;51.954;7.998;2023-02-22T19:45:37;16.93;;;9.00;;
15110;SDS011;7656;51.954;7.998;2023-02-22T19:49:59;13.07;;;8.47;;
15110;SDS011;7656;51.954;7.998;2023-02-22T19:54:21;13.70;;;8.57;;
15110;SDS011;7656;51.954;7.998;2023-02-22T19:58:44;12.43;;;8.90;;
15110;SDS011;7656;51.954;7.998;2023-02-22T20:03:09;18.80;;;11.67;;
15110;SDS011;7656;51.954;7.998;2023-02-22T20:07:32;17.23;;;10.93;;
15110;SDS011;7656;51.954;7.998;2023-02-22T20:11:53;18.50;;;10.83;;
15110;SDS011;7656;51.954;7.998;2023-02-22T20:16:15;17.07;;;10.97;;
15110;SDS011;7656;51.954;7.998;2023-02-22T20:20:37;14.67;;;9.20;;
15110;SDS011;7656;51.954;7.998;2023-02-22T20:24:59;14.53;;;8.33;;
15110;SDS011;7656;51.954;7.998;2023-02-22T20:29:20;14.73;;;8.83;;
15110;SDS011;7656;51.954;7.998;2023-02-22T20:33:51;11.87;;;9.20;;
15110;SDS011;7656;51.954;7.998;2023-02-22T20:38:14;17.47;;;10.07;;
15110;SDS011;7656;51.954;7.998;2023-02-22T20:42:38;15.77;;;10.00;;
15110;SDS011;7656;51.954;7.998;2023-02-22T20:47:00;15.00;;;9.83;;
15110;SDS011;7656;51.954;7.998;2023-02-22T20:51:23;23.87;;;12.93;;
15110;SDS011;7656;51.954;7.998;2023-02-22T20:55:49;23.97;;;14.40;;
15110;SDS011;7656;51.954;7.998;2023-02-22T21:00:12;13.77;;;9.87;;
15110;SDS011;7656;51.954;7.998;2023-02-22T21:04:33;15.57;;;9.40;;
15110;SDS011;7656;51.954;7.998;2023-02-22T21:08:55;17.63;;;10.10;;
15110;SDS011;7656;51.954;7.998;2023-02-22T21:13:19;15.60;;;10.97;;
15110;SDS011;7656;51.954;7.998;2023-02-22T21:17:40;18.37;;;10.90;;
15110;SDS011;7656;51.954;7.998;2023-02-22T21:22:07;16.07;;;11.00;;
15110;SDS011;7656;51.954;7.998;2023-02-22T21:26:29;17.00;;;10.80;;
15110;SDS011;7656;51.954;7.998;2023-02-22T21:30:52;16.30;;;10.97;;
15110;SDS011;7656;51.954;7.998;2023-02-22T21:35:13;18.43;;;10.37;;
15110;SDS011;7656;51.954;7.998;2023-02-22T21:39:34;17.10;;;11.60;;
15110;SDS011;7656;51.954;7.998;2023-02-22T21:43:55;15.67;;;10.83;;
15110;SDS011;7656;51.954;7.998;2023-02-22T21:48:18;15.50;;;11.03;;
15110;SDS011;7656;51.954;7.998;2023-02-22T21:52:39;15.90;;;11.53;;
15110;SDS011;7656;51.954;7.998;2023-02-22T21:57:00;18.27;;;11.93;;
15110;SDS011;7656;51.954;7.998;2023-02-22T22:01:21;19.33;;;11.60;;
15110;SDS011;7656;51.954;7.998;2023-02-22T22:05:42;19.13;;;12.77;;
15110;SDS011;7656;51.954;7.998;2023-02-22T22:10:05;17.40;;;13.00;;
15110;SDS011;7656;51.954;7.998;2023-02-22T22:14:28;17.67;;;13.30;;
15110;SDS011;7656;51.954;7.998;2023-02-22T22:18:50;17.83;;;13.57;;
15110;SDS011;7656;51.954;7.998;2023-02-22T22:23:11;22.60;;;15.00;;
15110;SDS011;7656;51.954;7.998;2023-02-22T22:27:32;22.97;;;14.30;;
15110;SDS011;7656;51.954;7.998;2023-02-22T22:31:53;23.00;;;14.43;;
15110;SDS011;7656;51.954;7.998;2023-02-22T22:36:15;19.70;;;14.17;;
15110;SDS011;7656;51.954;7.998;2023-02-22T22:40:38;21.63;;;15.63;;
15110;SDS011;7656;51.954;7.998;2023-02-22T22:44:59;22.50;;;15.53;;
15110;SDS011;7656;51.954;7.998;2023-02-22T22:49:20;21.50;;;15.50;;
15110;SDS011;7656;51.954;7.998;2023-02-22T22:53:43;22.77;;;16.03;;
15110;SDS011;7656;51.954;7.998;2023-02-22T22:58:09;25.47;;;17.13;;
15110;SDS011;7656;51.954;7.998;2023-02-22T23:02:30;24.43;;;16.30;;
15110;SDS011;7656;51.954;7.998;2023-02-22T23:06:52;25.20;;;17.67;;
15110;SDS011;7656;51.954;7.998;2023-02-22T23:11:13;27.40;;;17.47;;
15110;SDS011;7656;51.954;7.998;2023-02-22T23:15:35;25.07;;;16.80;;
15110;SDS011;7656;51.954;7.998;2023-02-22T23:20:08;29.50;;;18.67;;
15110;SDS011;7656;51.954;7.998;2023-02-22T23:24:33;26.23;;;18.63;;
15110;SDS011;7656;51.954;7.998;2023-02-22T23:28:56;25.87;;;18.43;;
15110;SDS011;7656;51.954;7.998;2023-02-22T23:33:18;27.70;;;18.47;;
15110;SDS011;7656;51.954;7.998;2023-02-22T23:37:39;28.00;;;18.27;;
15110;SDS011;7656;51.954;7.998;2023-02-22T23:42:01;30.93;;;18.50;;
15110;SDS011;7656;51.954;7.998;2023-02-22T23:46:23;31.60;;;18.97;;
15110;SDS011;7656;51.954;7.998;2023-02-22T23:50:46;27.97;;;18.97;;
15110;SDS011;7656;51.954;7.998;2023-02-22T23:55:08;28.43;;;18.90;;
15110;SDS011;7656;51.954;7.998;2023-02-22T23:59:30;28.30;;;19.17;;
